sensor_id;sensor_type;location;lat;lon;timestamp;temperature;humidity
25825;DHT22;13658;44.534;18.694;2023-03-02T00:01:38;3.40;99.90
25825;DHT22;13658;44.534;18.694;2023-03-02T00:04:10;3.50;99.90
25825;DHT22;13658;44.534;18.694;2023-03-02T00:06:37;3.40;99.90
25825;DHT22;13658;44.534;18.694;2023-03-02T00:09:04;3.40;99.90
25825;DHT22;13658;44.534;18.694;2023-03-02T00:11:33;3.50;99.90
25825;DHT22;13658;44.534;18.694;2023-03-02T00:14:00;3.50;99.90
25825;DHT22;13658;44.534;18.694;2023-03-02T00:16:26;3.50;99.90
25825;DHT22;13658;44.534;18.694;2023-03-02T00:18:51;3.40;99.90
25825;DHT22;13658;44.534;18.694;2023-03-02T00:21:17;3.50;99.90
25825;DHT22;13658;44.534;18.694;2023-03-02T00:23:43;3.50;99.90
25825;DHT22;13658;44.534;18.694;2023-03-02T00:26:09;3.40;99.90
25825;DHT22;13658;44.534;18.694;2023-03-02T00:28:36;3.40;99.90
25825;DHT22;13658;44.534;18.694;2023-03-02T00:31:05;3.40;99.90
25825;DHT22;13658;44.534;18.694;2023-03-02T00:33:32;3.50;99.90
25825;DHT22;13658;44.534;18.694;2023-03-02T00:35:58;3.60;99.90
25825;DHT22;13658;44.534;18.694;2023-03-02T00:38:24;3.60;99.90
25825;DHT22;13658;44.534;18.694;2023-03-02T00:40:52;3.60;99.90
25825;DHT22;13658;44.534;18.694;2023-03-02T00:43:19;3.60;99.90
25825;DHT22;13658;44.534;18.694;2023-03-02T00:45:47;3.50;99.90
25825;DHT22;13658;44.534;18.694;2023-03-02T00:48:13;3.50;99.90
25825;DHT22;13658;44.534;18.694;2023-03-02T00:50:39;3.60;99.90
25825;DHT22;13658;44.534;18.694;2023-03-02T00:53:09;3.60;99.90
25825;DHT22;13658;44.534;18.694;2023-03-02T00:55:36;3.60;99.90
25825;DHT22;13658;44.534;18.694;2023-03-02T00:58:03;3.60;99.90
25825;DHT22;13658;44.534;18.694;2023-03-02T01:00:31;3.50;99.90
25825;DHT22;13658;44.534;18.694;2023-03-02T01:03:01;3.50;99.90
25825;DHT22;13658;44.534;18.694;2023-03-02T01:05:27;3.60;99.90
25825;DHT22;13658;44.534;18.694;2023-03-02T01:07:53;3.50;99.90
25825;DHT22;13658;44.534;18.694;2023-03-02T01:10:19;3.50;99.90
25825;DHT22;13658;44.534;18.694;2023-03-02T01:12:45;3.50;99.90
25825;DHT22;13658;44.534;18.694;2023-03-02T01:15:11;3.60;99.90
25825;DHT22;13658;44.534;18.694;2023-03-02T01:17:38;3.60;99.90
25825;DHT22;13658;44.534;18.694;2023-03-02T01:20:06;3.60;99.90
25825;DHT22;13658;44.534;18.694;2023-03-02T01:22:33;3.50;99.90
25825;DHT22;13658;44.534;18.694;2023-03-02T01:24:59;3.60;99.90
25825;DHT22;13658;44.534;18.694;2023-03-02T01:27:25;3.50;99.90
25825;DHT22;13658;44.534;18.694;2023-03-02T01:29:51;3.50;99.90
25825;DHT22;13658;44.534;18.694;2023-03-02T01:32:17;3.40;99.90
25825;DHT22;13658;44.534;18.694;2023-03-02T01:34:43;3.40;99.90
25825;DHT22;13658;44.534;18.694;2023-03-02T01:37:09;3.30;99.90
25825;DHT22;13658;44.534;18.694;2023-03-02T01:39:35;3.30;99.90
25825;DHT22;13658;44.534;18.694;2023-03-02T01:42:01;3.40;99.90
25825;DHT22;13658;44.534;18.694;2023-03-02T01:44:36;3.40;99.90
25825;DHT22;13658;44.534;18.694;2023-03-02T01:47:11;3.40;99.90
25825;DHT22;13658;44.534;18.694;2023-03-02T01:49:54;3.40;99.90
25825;DHT22;13658;44.534;18.694;2023-03-02T01:52:21;3.40;99.90
25825;DHT22;13658;44.534;18.694;2023-03-02T01:54:50;3.40;99.90
25825;DHT22;13658;44.534;18.694;2023-03-02T01:57:22;3.40;99.90
25825;DHT22;13658;44.534;18.694;2023-03-02T01:59:53;3.40;99.90
25825;DHT22;13658;44.534;18.694;2023-03-02T02:02:20;3.40;99.90
25825;DHT22;13658;44.534;18.694;2023-03-02T02:04:48;3.40;99.90
25825;DHT22;13658;44.534;18.694;2023-03-02T02:07:14;3.40;99.90
25825;DHT22;13658;44.534;18.694;2023-03-02T02:09:44;3.30;99.90
25825;DHT22;13658;44.534;18.694;2023-03-02T02:12:16;3.20;99.90
25825;DHT22;13658;44.534;18.694;2023-03-02T02:14:42;3.20;99.90
25825;DHT22;13658;44.534;18.694;2023-03-02T02:17:10;3.20;99.90
25825;DHT22;13658;44.534;18.694;2023-03-02T02:20:22;3.20;99.90
25825;DHT22;13658;44.534;18.694;2023-03-02T02:22:52;3.10;99.90
25825;DHT22;13658;44.534;18.694;2023-03-02T02:25:39;3.20;99.90
25825;DHT22;13658;44.534;18.694;2023-03-02T02:28:11;3.20;99.90
25825;DHT22;13658;44.534;18.694;2023-03-02T02:30:40;3.20;99.90
25825;DHT22;13658;44.534;18.694;2023-03-02T02:33:13;3.20;99.90
25825;DHT22;13658;44.534;18.694;2023-03-02T02:35:40;3.20;99.90
25825;DHT22;13658;44.534;18.694;2023-03-02T02:38:07;3.30;99.90
25825;DHT22;13658;44.534;18.694;2023-03-02T02:40:48;3.40;99.90
25825;DHT22;13658;44.534;18.694;2023-03-02T02:43:20;3.50;99.90
25825;DHT22;13658;44.534;18.694;2023-03-02T02:45:48;3.50;99.90
25825;DHT22;13658;44.534;18.694;2023-03-02T02:48:17;3.50;99.90
25825;DHT22;13658;44.534;18.694;2023-03-02T02:50:45;3.40;99.90
25825;DHT22;13658;44.534;18.694;2023-03-02T02:53:17;3.50;99.90
25825;DHT22;13658;44.534;18.694;2023-03-02T02:55:45;3.50;99.90
25825;DHT22;13658;44.534;18.694;2023-03-02T02:58:39;3.60;99.90
25825;DHT22;13658;44.534;18.694;2023-03-02T03:01:06;3.50;99.90
25825;DHT22;13658;44.534;18.694;2023-03-02T03:03:37;3.60;99.90
25825;DHT22;13658;44.534;18.694;2023-03-02T03:06:12;3.60;99.90
25825;DHT22;13658;44.534;18.694;2023-03-02T03:11:33;3.60;99.90
25825;DHT22;13658;44.534;18.694;2023-03-02T03:14:03;3.50;99.90
25825;DHT22;13658;44.534;18.694;2023-03-02T03:16:31;3.40;99.90
25825;DHT22;13658;44.534;18.694;2023-03-02T03:19:09;3.40;99.90
25825;DHT22;13658;44.534;18.694;2023-03-02T03:21:36;3.30;99.90
25825;DHT22;13658;44.534;18.694;2023-03-02T03:24:03;3.30;99.90
25825;DHT22;13658;44.534;18.694;2023-03-02T03:26:30;3.30;99.90
25825;DHT22;13658;44.534;18.694;2023-03-02T03:28:56;3.30;99.90
25825;DHT22;13658;44.534;18.694;2023-03-02T03:31:25;3.30;99.90
25825;DHT22;13658;44.534;18.694;2023-03-02T03:33:52;3.30;99.90
25825;DHT22;13658;44.534;18.694;2023-03-02T03:36:18;3.40;99.90
25825;DHT22;13658;44.534;18.694;2023-03-02T03:38:45;3.30;99.90
25825;DHT22;13658;44.534;18.694;2023-03-02T03:41:12;3.30;99.90
25825;DHT22;13658;44.534;18.694;2023-03-02T03:43:38;3.30;99.90
25825;DHT22;13658;44.534;18.694;2023-03-02T03:46:04;3.40;99.90
25825;DHT22;13658;44.534;18.694;2023-03-02T03:48:30;3.50;99.90
25825;DHT22;13658;44.534;18.694;2023-03-02T03:50:58;3.50;99.90
25825;DHT22;13658;44.534;18.694;2023-03-02T03:53:25;3.60;99.90
25825;DHT22;13658;44.534;18.694;2023-03-02T03:55:51;3.60;99.90
25825;DHT22;13658;44.534;18.694;2023-03-02T03:58:18;3.60;99.90
25825;DHT22;13658;44.534;18.694;2023-03-02T04:00:45;3.60;99.90
25825;DHT22;13658;44.534;18.694;2023-03-02T04:03:14;3.60;99.90
25825;DHT22;13658;44.534;18.694;2023-03-02T04:05:40;3.60;99.90
25825;DHT22;13658;44.534;18.694;2023-03-02T04:08:07;3.60;99.90
25825;DHT22;13658;44.534;18.694;2023-03-02T04:10:34;3.50;99.90
25825;DHT22;13658;44.534;18.694;2023-03-02T04:13:01;3.50;99.90
25825;DHT22;13658;44.534;18.694;2023-03-02T04:15:27;3.50;99.90
25825;DHT22;13658;44.534;18.694;2023-03-02T04:17:55;3.40;99.90
25825;DHT22;13658;44.534;18.694;2023-03-02T04:20:23;3.40;99.90
25825;DHT22;13658;44.534;18.694;2023-03-02T04:22:53;3.30;99.90
25825;DHT22;13658;44.534;18.694;2023-03-02T04:25:21;3.20;99.90
25825;DHT22;13658;44.534;18.694;2023-03-02T04:27:51;3.10;99.90
25825;DHT22;13658;44.534;18.694;2023-03-02T04:30:22;3.20;99.90
25825;DHT22;13658;44.534;18.694;2023-03-02T04:32:48;3.20;99.90
25825;DHT22;13658;44.534;18.694;2023-03-02T04:35:15;3.20;99.90
25825;DHT22;13658;44.534;18.694;2023-03-02T04:37:41;3.20;99.90
25825;DHT22;13658;44.534;18.694;2023-03-02T04:40:11;3.30;99.90
25825;DHT22;13658;44.534;18.694;2023-03-02T04:42:38;3.40;99.90
25825;DHT22;13658;44.534;18.694;2023-03-02T04:45:05;3.30;99.90
25825;DHT22;13658;44.534;18.694;2023-03-02T04:47:31;3.30;99.90
25825;DHT22;13658;44.534;18.694;2023-03-02T04:49:57;3.30;99.90
25825;DHT22;13658;44.534;18.694;2023-03-02T04:52:23;3.50;99.90
25825;DHT22;13658;44.534;18.694;2023-03-02T04:54:50;3.50;99.90
25825;DHT22;13658;44.534;18.694;2023-03-02T04:57:16;3.60;99.90
25825;DHT22;13658;44.534;18.694;2023-03-02T04:59:42;3.60;99.90
25825;DHT22;13658;44.534;18.694;2023-03-02T05:02:09;3.60;99.90
25825;DHT22;13658;44.534;18.694;2023-03-02T05:04:35;3.50;99.90
25825;DHT22;13658;44.534;18.694;2023-03-02T05:07:01;3.50;99.90
25825;DHT22;13658;44.534;18.694;2023-03-02T05:09:27;3.50;99.90
25825;DHT22;13658;44.534;18.694;2023-03-02T05:11:57;3.50;99.90
25825;DHT22;13658;44.534;18.694;2023-03-02T05:14:24;3.40;99.90
25825;DHT22;13658;44.534;18.694;2023-03-02T05:16:51;3.40;99.90
25825;DHT22;13658;44.534;18.694;2023-03-02T05:19:17;3.40;99.90
25825;DHT22;13658;44.534;18.694;2023-03-02T05:21:44;3.50;99.90
25825;DHT22;13658;44.534;18.694;2023-03-02T05:24:12;3.50;99.90
25825;DHT22;13658;44.534;18.694;2023-03-02T05:26:38;3.50;99.90
25825;DHT22;13658;44.534;18.694;2023-03-02T05:29:04;3.50;99.90
25825;DHT22;13658;44.534;18.694;2023-03-02T05:31:33;3.50;99.90
25825;DHT22;13658;44.534;18.694;2023-03-02T05:34:01;3.50;99.90
25825;DHT22;13658;44.534;18.694;2023-03-02T05:36:27;3.50;99.90
25825;DHT22;13658;44.534;18.694;2023-03-02T05:38:53;3.50;99.90
25825;DHT22;13658;44.534;18.694;2023-03-02T05:41:19;3.50;99.90
25825;DHT22;13658;44.534;18.694;2023-03-02T05:43:45;3.50;99.90
25825;DHT22;13658;44.534;18.694;2023-03-02T05:46:11;3.50;99.90
25825;DHT22;13658;44.534;18.694;2023-03-02T05:48:37;3.50;99.90
25825;DHT22;13658;44.534;18.694;2023-03-02T05:51:03;3.50;99.90
25825;DHT22;13658;44.534;18.694;2023-03-02T05:53:29;3.50;99.90
25825;DHT22;13658;44.534;18.694;2023-03-02T05:55:55;3.50;99.90
25825;DHT22;13658;44.534;18.694;2023-03-02T05:58:21;3.50;99.90
25825;DHT22;13658;44.534;18.694;2023-03-02T06:00:47;3.50;99.90
25825;DHT22;13658;44.534;18.694;2023-03-02T06:03:14;3.60;99.90
25825;DHT22;13658;44.534;18.694;2023-03-02T06:05:41;3.60;99.90
25825;DHT22;13658;44.534;18.694;2023-03-02T06:08:07;3.70;99.90
25825;DHT22;13658;44.534;18.694;2023-03-02T06:10:34;3.70;99.90
25825;DHT22;13658;44.534;18.694;2023-03-02T06:13:00;3.80;99.90
25825;DHT22;13658;44.534;18.694;2023-03-02T06:15:26;3.80;99.90
25825;DHT22;13658;44.534;18.694;2023-03-02T06:17:55;3.80;99.90
25825;DHT22;13658;44.534;18.694;2023-03-02T06:20:21;3.90;99.90
25825;DHT22;13658;44.534;18.694;2023-03-02T06:22:47;3.90;99.90
25825;DHT22;13658;44.534;18.694;2023-03-02T06:25:16;4.00;99.90
25825;DHT22;13658;44.534;18.694;2023-03-02T06:27:43;4.00;99.90
25825;DHT22;13658;44.534;18.694;2023-03-02T06:30:14;3.90;99.90
25825;DHT22;13658;44.534;18.694;2023-03-02T06:32:40;3.90;99.90
25825;DHT22;13658;44.534;18.694;2023-03-02T06:35:07;3.90;99.90
25825;DHT22;13658;44.534;18.694;2023-03-02T06:37:33;3.90;99.90
25825;DHT22;13658;44.534;18.694;2023-03-02T06:39:59;3.90;99.90
25825;DHT22;13658;44.534;18.694;2023-03-02T06:42:26;4.00;99.90
25825;DHT22;13658;44.534;18.694;2023-03-02T06:44:52;3.90;99.90
25825;DHT22;13658;44.534;18.694;2023-03-02T06:47:21;3.90;99.90
25825;DHT22;13658;44.534;18.694;2023-03-02T06:49:47;4.00;99.90
25825;DHT22;13658;44.534;18.694;2023-03-02T06:52:14;4.10;99.90
25825;DHT22;13658;44.534;18.694;2023-03-02T06:54:40;4.10;99.90
25825;DHT22;13658;44.534;18.694;2023-03-02T06:57:06;4.20;99.90
25825;DHT22;13658;44.534;18.694;2023-03-02T06:59:33;4.20;99.90
25825;DHT22;13658;44.534;18.694;2023-03-02T07:01:59;4.10;99.90
25825;DHT22;13658;44.534;18.694;2023-03-02T07:04:25;4.10;99.90
25825;DHT22;13658;44.534;18.694;2023-03-02T07:06:53;4.30;99.90
25825;DHT22;13658;44.534;18.694;2023-03-02T07:09:19;4.30;99.90
25825;DHT22;13658;44.534;18.694;2023-03-02T07:11:45;4.20;99.90
25825;DHT22;13658;44.534;18.694;2023-03-02T07:14:11;4.30;99.90
25825;DHT22;13658;44.534;18.694;2023-03-02T07:16:37;4.30;99.90
25825;DHT22;13658;44.534;18.694;2023-03-02T07:19:03;4.50;99.90
25825;DHT22;13658;44.534;18.694;2023-03-02T07:21:29;4.40;99.90
25825;DHT22;13658;44.534;18.694;2023-03-02T07:23:55;4.50;99.90
25825;DHT22;13658;44.534;18.694;2023-03-02T07:26:21;4.40;99.90
25825;DHT22;13658;44.534;18.694;2023-03-02T07:28:47;4.50;99.90
25825;DHT22;13658;44.534;18.694;2023-03-02T07:31:13;4.60;99.90
25825;DHT22;13658;44.534;18.694;2023-03-02T07:33:39;4.40;99.90
25825;DHT22;13658;44.534;18.694;2023-03-02T07:36:08;4.30;99.90
25825;DHT22;13658;44.534;18.694;2023-03-02T07:38:35;4.50;99.90
25825;DHT22;13658;44.534;18.694;2023-03-02T07:41:06;4.50;99.90
25825;DHT22;13658;44.534;18.694;2023-03-02T07:43:32;4.60;99.90
25825;DHT22;13658;44.534;18.694;2023-03-02T07:46:00;4.90;99.90
25825;DHT22;13658;44.534;18.694;2023-03-02T07:48:26;5.10;99.90
25825;DHT22;13658;44.534;18.694;2023-03-02T07:51:00;5.20;99.90
25825;DHT22;13658;44.534;18.694;2023-03-02T07:53:27;5.30;99.90
25825;DHT22;13658;44.534;18.694;2023-03-02T07:55:53;5.40;99.90
25825;DHT22;13658;44.534;18.694;2023-03-02T07:58:20;5.50;99.90
25825;DHT22;13658;44.534;18.694;2023-03-02T08:00:47;5.60;99.90
25825;DHT22;13658;44.534;18.694;2023-03-02T08:03:12;5.70;99.90
25825;DHT22;13658;44.534;18.694;2023-03-02T08:05:38;5.90;99.90
25825;DHT22;13658;44.534;18.694;2023-03-02T08:08:04;5.80;99.90
25825;DHT22;13658;44.534;18.694;2023-03-02T08:10:33;5.90;99.90
25825;DHT22;13658;44.534;18.694;2023-03-02T08:13:00;6.00;99.90
25825;DHT22;13658;44.534;18.694;2023-03-02T08:15:26;6.10;99.90
25825;DHT22;13658;44.534;18.694;2023-03-02T08:17:52;6.20;99.90
25825;DHT22;13658;44.534;18.694;2023-03-02T08:20:18;6.40;99.90
25825;DHT22;13658;44.534;18.694;2023-03-02T08:22:44;6.60;99.90
25825;DHT22;13658;44.534;18.694;2023-03-02T08:25:10;6.90;99.90
25825;DHT22;13658;44.534;18.694;2023-03-02T08:27:36;6.90;99.90
25825;DHT22;13658;44.534;18.694;2023-03-02T08:30:06;7.10;99.90
25825;DHT22;13658;44.534;18.694;2023-03-02T08:32:33;7.40;99.90
25825;DHT22;13658;44.534;18.694;2023-03-02T08:34:59;7.40;99.90
25825;DHT22;13658;44.534;18.694;2023-03-02T08:37:25;7.40;99.90
25825;DHT22;13658;44.534;18.694;2023-03-02T08:39:51;7.50;99.90
25825;DHT22;13658;44.534;18.694;2023-03-02T08:42:17;7.60;99.90
25825;DHT22;13658;44.534;18.694;2023-03-02T08:44:43;7.90;99.90
25825;DHT22;13658;44.534;18.694;2023-03-02T08:47:09;8.20;99.90
25825;DHT22;13658;44.534;18.694;2023-03-02T08:49:35;8.10;99.90
25825;DHT22;13658;44.534;18.694;2023-03-02T08:52:02;8.10;99.90
25825;DHT22;13658;44.534;18.694;2023-03-02T08:54:29;8.00;99.90
25825;DHT22;13658;44.534;18.694;2023-03-02T08:56:55;8.00;99.90
25825;DHT22;13658;44.534;18.694;2023-03-02T08:59:21;8.00;99.90
25825;DHT22;13658;44.534;18.694;2023-03-02T09:01:47;8.10;99.90
25825;DHT22;13658;44.534;18.694;2023-03-02T09:04:13;8.20;99.90
25825;DHT22;13658;44.534;18.694;2023-03-02T09:06:41;8.00;99.90
25825;DHT22;13658;44.534;18.694;2023-03-02T09:09:10;8.20;99.90
25825;DHT22;13658;44.534;18.694;2023-03-02T09:11:36;8.20;99.90
25825;DHT22;13658;44.534;18.694;2023-03-02T09:14:02;8.40;99.90
25825;DHT22;13658;44.534;18.694;2023-03-02T09:16:29;8.50;99.90
25825;DHT22;13658;44.534;18.694;2023-03-02T09:18:55;8.60;99.90
25825;DHT22;13658;44.534;18.694;2023-03-02T09:21:21;8.30;99.90
25825;DHT22;13658;44.534;18.694;2023-03-02T09:23:47;8.20;99.90
25825;DHT22;13658;44.534;18.694;2023-03-02T09:26:13;8.40;99.90
25825;DHT22;13658;44.534;18.694;2023-03-02T09:28:39;8.30;99.90
25825;DHT22;13658;44.534;18.694;2023-03-02T09:31:07;8.30;99.90
25825;DHT22;13658;44.534;18.694;2023-03-02T09:33:33;8.30;99.90
25825;DHT22;13658;44.534;18.694;2023-03-02T09:35:59;8.40;99.90
25825;DHT22;13658;44.534;18.694;2023-03-02T09:38:29;8.40;99.90
25825;DHT22;13658;44.534;18.694;2023-03-02T09:49:54;8.70;99.90
25825;DHT22;13658;44.534;18.694;2023-03-02T09:52:39;8.90;99.90
25825;DHT22;13658;44.534;18.694;2023-03-02T09:55:15;9.20;99.90
25825;DHT22;13658;44.534;18.694;2023-03-02T09:57:43;9.60;99.90
25825;DHT22;13658;44.534;18.694;2023-03-02T10:00:24;10.00;99.90
25825;DHT22;13658;44.534;18.694;2023-03-02T10:02:58;10.90;99.90
25825;DHT22;13658;44.534;18.694;2023-03-02T10:05:34;11.60;99.90
25825;DHT22;13658;44.534;18.694;2023-03-02T10:08:03;11.90;99.90
25825;DHT22;13658;44.534;18.694;2023-03-02T10:16:38;11.60;99.90
25825;DHT22;13658;44.534;18.694;2023-03-02T10:21:44;10.90;99.90
25825;DHT22;13658;44.534;18.694;2023-03-02T10:26:43;10.50;99.90
25825;DHT22;13658;44.534;18.694;2023-03-02T10:31:41;10.20;99.90
25825;DHT22;13658;44.534;18.694;2023-03-02T10:34:09;10.30;99.90
25825;DHT22;13658;44.534;18.694;2023-03-02T10:36:42;10.30;99.90
25825;DHT22;13658;44.534;18.694;2023-03-02T10:39:14;9.80;99.90
25825;DHT22;13658;44.534;18.694;2023-03-02T10:41:55;9.80;99.90
25825;DHT22;13658;44.534;18.694;2023-03-02T10:44:25;9.70;99.90
25825;DHT22;13658;44.534;18.694;2023-03-02T10:46:53;9.80;99.90
25825;DHT22;13658;44.534;18.694;2023-03-02T10:49:25;9.80;99.90
25825;DHT22;13658;44.534;18.694;2023-03-02T10:52:03;9.30;99.90
25825;DHT22;13658;44.534;18.694;2023-03-02T10:54:31;9.50;99.90
25825;DHT22;13658;44.534;18.694;2023-03-02T10:56:59;9.70;99.90
25825;DHT22;13658;44.534;18.694;2023-03-02T10:59:45;9.50;99.90
25825;DHT22;13658;44.534;18.694;2023-03-02T11:04:44;9.10;99.90
25825;DHT22;13658;44.534;18.694;2023-03-02T11:07:16;9.50;99.90
25825;DHT22;13658;44.534;18.694;2023-03-02T11:10:05;9.50;99.90
25825;DHT22;13658;44.534;18.694;2023-03-02T11:12:31;9.20;99.90
25825;DHT22;13658;44.534;18.694;2023-03-02T11:17:37;9.70;99.90
25825;DHT22;13658;44.534;18.694;2023-03-02T11:20:05;9.70;99.90
25825;DHT22;13658;44.534;18.694;2023-03-02T11:22:51;9.50;99.90
25825;DHT22;13658;44.534;18.694;2023-03-02T11:25:25;9.50;99.90
25825;DHT22;13658;44.534;18.694;2023-03-02T11:28:21;9.30;99.90
25825;DHT22;13658;44.534;18.694;2023-03-02T11:30:53;8.90;99.90
25825;DHT22;13658;44.534;18.694;2023-03-02T11:33:28;9.00;99.90
25825;DHT22;13658;44.534;18.694;2023-03-02T11:36:04;8.80;99.90
25825;DHT22;13658;44.534;18.694;2023-03-02T11:38:40;8.80;99.90
25825;DHT22;13658;44.534;18.694;2023-03-02T11:41:27;8.40;99.90
25825;DHT22;13658;44.534;18.694;2023-03-02T11:43:57;8.40;99.90
25825;DHT22;13658;44.534;18.694;2023-03-02T11:46:28;8.40;99.90
25825;DHT22;13658;44.534;18.694;2023-03-02T11:49:04;8.40;99.90
25825;DHT22;13658;44.534;18.694;2023-03-02T11:51:35;8.50;99.90
25825;DHT22;13658;44.534;18.694;2023-03-02T11:56:54;8.80;99.90
25825;DHT22;13658;44.534;18.694;2023-03-02T11:59:20;9.10;99.90
25825;DHT22;13658;44.534;18.694;2023-03-02T12:01:51;9.10;99.90
25825;DHT22;13658;44.534;18.694;2023-03-02T12:04:36;9.40;99.90
25825;DHT22;13658;44.534;18.694;2023-03-02T12:07:22;9.40;99.90
25825;DHT22;13658;44.534;18.694;2023-03-02T12:10:02;9.50;99.90
25825;DHT22;13658;44.534;18.694;2023-03-02T12:12:33;9.50;99.90
25825;DHT22;13658;44.534;18.694;2023-03-02T12:15:00;9.40;99.90
25825;DHT22;13658;44.534;18.694;2023-03-02T12:20:30;9.00;99.90
25825;DHT22;13658;44.534;18.694;2023-03-02T12:23:06;9.20;99.90
25825;DHT22;13658;44.534;18.694;2023-03-02T12:25:41;9.20;99.90
25825;DHT22;13658;44.534;18.694;2023-03-02T12:28:42;9.20;99.90
25825;DHT22;13658;44.534;18.694;2023-03-02T12:31:11;9.10;99.90
25825;DHT22;13658;44.534;18.694;2023-03-02T12:33:48;9.10;99.90
25825;DHT22;13658;44.534;18.694;2023-03-02T12:36:41;8.90;99.90
25825;DHT22;13658;44.534;18.694;2023-03-02T12:47:16;8.70;99.90
25825;DHT22;13658;44.534;18.694;2023-03-02T12:49:53;8.90;99.90
25825;DHT22;13658;44.534;18.694;2023-03-02T12:52:32;9.10;99.90
25825;DHT22;13658;44.534;18.694;2023-03-02T12:55:11;9.00;99.90
25825;DHT22;13658;44.534;18.694;2023-03-02T12:57:50;9.20;99.90
25825;DHT22;13658;44.534;18.694;2023-03-02T13:00:28;9.20;99.90
25825;DHT22;13658;44.534;18.694;2023-03-02T13:02:56;9.20;99.90
25825;DHT22;13658;44.534;18.694;2023-03-02T13:05:32;9.50;99.90
25825;DHT22;13658;44.534;18.694;2023-03-02T13:08:04;9.30;99.90
25825;DHT22;13658;44.534;18.694;2023-03-02T13:10:40;9.30;99.90
25825;DHT22;13658;44.534;18.694;2023-03-02T13:15:52;8.80;99.90
25825;DHT22;13658;44.534;18.694;2023-03-02T13:18:20;8.90;99.90
25825;DHT22;13658;44.534;18.694;2023-03-02T13:20:48;8.90;99.90
25825;DHT22;13658;44.534;18.694;2023-03-02T13:23:15;8.90;99.90
25825;DHT22;13658;44.534;18.694;2023-03-02T13:25:52;8.60;99.90
25825;DHT22;13658;44.534;18.694;2023-03-02T13:28:38;8.50;99.90
25825;DHT22;13658;44.534;18.694;2023-03-02T13:31:16;8.80;99.90
25825;DHT22;13658;44.534;18.694;2023-03-02T13:33:45;8.70;99.90
25825;DHT22;13658;44.534;18.694;2023-03-02T13:36:24;8.60;99.90
25825;DHT22;13658;44.534;18.694;2023-03-02T13:38:53;8.70;99.90
25825;DHT22;13658;44.534;18.694;2023-03-02T13:41:25;8.30;99.90
25825;DHT22;13658;44.534;18.694;2023-03-02T13:43:51;8.30;99.90
25825;DHT22;13658;44.534;18.694;2023-03-02T13:49:01;8.60;99.90
25825;DHT22;13658;44.534;18.694;2023-03-02T13:51:41;8.70;99.90
25825;DHT22;13658;44.534;18.694;2023-03-02T13:54:24;8.90;99.90
25825;DHT22;13658;44.534;18.694;2023-03-02T13:56:51;9.00;99.90
25825;DHT22;13658;44.534;18.694;2023-03-02T13:59:20;8.90;99.90
25825;DHT22;13658;44.534;18.694;2023-03-02T14:01:46;8.80;99.90
25825;DHT22;13658;44.534;18.694;2023-03-02T14:04:18;8.90;99.90
25825;DHT22;13658;44.534;18.694;2023-03-02T14:06:46;8.70;99.90
25825;DHT22;13658;44.534;18.694;2023-03-02T14:09:12;8.50;99.90
25825;DHT22;13658;44.534;18.694;2023-03-02T14:11:44;8.60;99.90
25825;DHT22;13658;44.534;18.694;2023-03-02T14:14:15;8.70;99.90
25825;DHT22;13658;44.534;18.694;2023-03-02T14:16:41;8.60;99.90
25825;DHT22;13658;44.534;18.694;2023-03-02T14:19:11;8.50;99.90
25825;DHT22;13658;44.534;18.694;2023-03-02T14:21:38;8.20;99.90
25825;DHT22;13658;44.534;18.694;2023-03-02T14:24:05;8.10;99.90
25825;DHT22;13658;44.534;18.694;2023-03-02T14:26:36;7.90;99.90
25825;DHT22;13658;44.534;18.694;2023-03-02T14:31:34;7.90;99.90
25825;DHT22;13658;44.534;18.694;2023-03-02T14:34:00;7.90;99.90
25825;DHT22;13658;44.534;18.694;2023-03-02T14:36:32;7.90;99.90
25825;DHT22;13658;44.534;18.694;2023-03-02T14:39:01;7.80;99.90
25825;DHT22;13658;44.534;18.694;2023-03-02T14:41:28;7.60;99.90
25825;DHT22;13658;44.534;18.694;2023-03-02T14:43:54;7.50;99.90
25825;DHT22;13658;44.534;18.694;2023-03-02T14:46:20;7.40;99.90
25825;DHT22;13658;44.534;18.694;2023-03-02T14:48:46;7.40;99.90
25825;DHT22;13658;44.534;18.694;2023-03-02T14:51:20;7.50;99.90
25825;DHT22;13658;44.534;18.694;2023-03-02T14:53:47;7.60;99.90
25825;DHT22;13658;44.534;18.694;2023-03-02T14:56:16;7.80;99.90
25825;DHT22;13658;44.534;18.694;2023-03-02T14:58:42;7.80;99.90
25825;DHT22;13658;44.534;18.694;2023-03-02T15:01:10;7.50;99.90
25825;DHT22;13658;44.534;18.694;2023-03-02T15:03:36;7.70;99.90
25825;DHT22;13658;44.534;18.694;2023-03-02T15:06:02;7.50;99.90
25825;DHT22;13658;44.534;18.694;2023-03-02T15:08:29;7.50;99.90
25825;DHT22;13658;44.534;18.694;2023-03-02T15:10:55;7.40;99.90
25825;DHT22;13658;44.534;18.694;2023-03-02T15:13:21;7.20;99.90
25825;DHT22;13658;44.534;18.694;2023-03-02T15:15:47;7.30;99.90
25825;DHT22;13658;44.534;18.694;2023-03-02T15:18:14;7.50;99.90
25825;DHT22;13658;44.534;18.694;2023-03-02T15:20:44;7.60;99.90
25825;DHT22;13658;44.534;18.694;2023-03-02T15:23:09;7.60;99.90
25825;DHT22;13658;44.534;18.694;2023-03-02T15:25:35;7.50;99.90
25825;DHT22;13658;44.534;18.694;2023-03-02T15:28:03;7.40;99.90
25825;DHT22;13658;44.534;18.694;2023-03-02T15:30:30;7.40;99.90
25825;DHT22;13658;44.534;18.694;2023-03-02T15:32:57;7.30;99.90
25825;DHT22;13658;44.534;18.694;2023-03-02T15:35:25;7.30;99.90
25825;DHT22;13658;44.534;18.694;2023-03-02T15:37:52;7.30;99.90
25825;DHT22;13658;44.534;18.694;2023-03-02T15:40:18;7.30;99.90
25825;DHT22;13658;44.534;18.694;2023-03-02T15:42:44;7.30;99.90
25825;DHT22;13658;44.534;18.694;2023-03-02T15:45:10;7.10;99.90
25825;DHT22;13658;44.534;18.694;2023-03-02T15:47:36;7.10;99.90
25825;DHT22;13658;44.534;18.694;2023-03-02T15:50:03;6.90;99.90
25825;DHT22;13658;44.534;18.694;2023-03-02T15:52:29;7.10;99.90
25825;DHT22;13658;44.534;18.694;2023-03-02T15:54:54;7.10;99.90
25825;DHT22;13658;44.534;18.694;2023-03-02T15:57:21;7.10;99.90
25825;DHT22;13658;44.534;18.694;2023-03-02T15:59:47;7.10;99.90
25825;DHT22;13658;44.534;18.694;2023-03-02T16:02:13;7.00;99.90
25825;DHT22;13658;44.534;18.694;2023-03-02T16:04:39;7.10;99.90
25825;DHT22;13658;44.534;18.694;2023-03-02T16:07:05;7.10;99.90
25825;DHT22;13658;44.534;18.694;2023-03-02T16:09:31;7.10;99.90
25825;DHT22;13658;44.534;18.694;2023-03-02T16:11:57;7.00;99.90
25825;DHT22;13658;44.534;18.694;2023-03-02T16:14:23;6.90;99.90
25825;DHT22;13658;44.534;18.694;2023-03-02T16:16:49;6.90;99.90
25825;DHT22;13658;44.534;18.694;2023-03-02T16:19:17;6.90;99.90
25825;DHT22;13658;44.534;18.694;2023-03-02T16:21:43;6.90;99.90
25825;DHT22;13658;44.534;18.694;2023-03-02T16:24:10;6.80;99.90
25825;DHT22;13658;44.534;18.694;2023-03-02T16:26:37;6.70;99.90
25825;DHT22;13658;44.534;18.694;2023-03-02T16:29:04;6.70;99.90
25825;DHT22;13658;44.534;18.694;2023-03-02T16:31:33;6.80;99.90
25825;DHT22;13658;44.534;18.694;2023-03-02T16:34:03;6.80;99.90